Time;durP1;ratioP1;P1;durP2;ratioP2;P2;SDS_P1;SDS_P2;PMS_P1;PMS_P2;Temp;Humidity;BMP_temperature;BMP_pressure;BME280_temperature;BME280_humidity;BME280_pressure;Samples;Min_cycle;Max_cycle;Signal;HPM_P1;HPM_P2
2023/04/03 00:00:13;;;;;;;7.18;5.50;;;;;;;;;;5074206;28;20488;-65
2023/04/03 00:02:40;;;;;;;7.53;5.32;;;;;;;;;;5074169;28;20555;-65
2023/04/03 00:05:07;;;;;;;8.27;5.73;;;;;;;;;;5074242;28;20071;-65
2023/04/03 00:07:33;;;;;;;8.77;5.97;;;;;;;;;;5074190;28;20372;-65
2023/04/03 00:10:00;;;;;;;9.52;6.65;;;;;;;;;;5073968;28;20056;-66
2023/04/03 00:12:26;;;;;;;10.48;6.00;;;;;;;;;;5073761;28;20634;-65
2023/04/03 00:14:52;;;;;;;9.52;5.28;;;;;;;;;;5073847;28;20062;-66
2023/04/03 00:17:19;;;;;;;8.73;5.35;;;;;;;;;;5074023;28;20056;-66
2023/04/03 00:19:45;;;;;;;9.20;5.00;;;;;;;;;;5074144;28;20051;-66
2023/04/03 00:22:12;;;;;;;11.63;5.80;;;;;;;;;;5074101;28;20045;-66
2023/04/03 00:24:38;;;;;;;7.05;5.20;;;;;;;;;;5073755;28;20058;-66
2023/04/03 00:27:05;;;;;;;5.55;4.82;;;;;;;;;;5073561;28;20049;-66
2023/04/03 00:29:31;;;;;;;7.03;5.18;;;;;;;;;;5073833;28;20146;-66
2023/04/03 00:31:57;;;;;;;6.05;5.35;;;;;;;;;;5055769;28;20503;-66
2023/04/03 00:34:24;;;;;;;7.57;5.00;;;;;;;;;;5073617;28;20044;-66
2023/04/03 00:36:51;;;;;;;9.52;5.38;;;;;;;;;;5073861;28;20040;-65
2023/04/03 00:39:17;;;;;;;9.75;4.78;;;;;;;;;;5073860;28;20088;-66
2023/04/03 00:41:44;;;;;;;12.77;5.40;;;;;;;;;;5073474;28;20040;-66
2023/04/03 00:44:28;;;;;;;8.65;4.97;;;;;;;;;;5073433;28;20502;-66
2023/04/03 00:46:55;;;;;;;8.65;4.82;;;;;;;;;;5073485;28;20037;-66
2023/04/03 00:49:21;;;;;;;7.28;4.45;;;;;;;;;;5073361;28;20055;-65
2023/04/03 00:51:48;;;;;;;5.95;4.60;;;;;;;;;;5073514;28;20059;-66
2023/04/03 00:54:14;;;;;;;8.43;5.15;;;;;;;;;;5073546;28;20051;-66
2023/04/03 00:56:41;;;;;;;7.93;5.03;;;;;;;;;;5073280;28;20135;-66
2023/04/03 00:59:12;;;;;;;6.55;4.45;;;;;;;;;;5072874;28;20518;-65
2023/04/03 01:01:39;;;;;;;7.50;4.60;;;;;;;;;;5072990;28;20426;-66
2023/04/03 01:04:06;;;;;;;8.02;4.70;;;;;;;;;;5072997;28;20049;-65
2023/04/03 01:06:35;;;;;;;5.47;4.60;;;;;;;;;;5073182;28;20044;-65
2023/04/03 01:09:02;;;;;;;6.40;4.82;;;;;;;;;;5073087;28;20045;-66
2023/04/03 01:11:28;;;;;;;7.67;5.40;;;;;;;;;;5072842;28;20059;-66
2023/04/03 01:13:55;;;;;;;6.80;5.07;;;;;;;;;;5072900;28;20080;-65
2023/04/03 01:16:21;;;;;;;5.90;5.30;;;;;;;;;;5072780;28;20052;-66
2023/04/03 01:18:48;;;;;;;8.93;5.60;;;;;;;;;;5072532;28;20052;-66
2023/04/03 01:21:17;;;;;;;7.95;5.28;;;;;;;;;;5072939;28;20416;-66
2023/04/03 01:23:50;;;;;;;8.02;5.47;;;;;;;;;;5072031;28;20051;-66
2023/04/03 01:26:16;;;;;;;8.80;5.45;;;;;;;;;;5072844;28;20055;-66
2023/04/03 01:28:43;;;;;;;8.40;5.75;;;;;;;;;;5072725;28;20136;-66
2023/04/03 01:31:15;;;;;;;6.53;5.60;;;;;;;;;;5072665;28;20056;-66
2023/04/03 01:34:16;;;;;;;8.25;5.20;;;;;;;;;;5072421;28;20088;-65
2023/04/03 01:36:44;;;;;;;7.35;4.80;;;;;;;;;;5073006;28;20052;-65
2023/04/03 01:39:11;;;;;;;6.00;4.57;;;;;;;;;;5072463;28;20054;-65
2023/04/03 01:41:37;;;;;;;6.15;4.70;;;;;;;;;;5072219;28;20041;-66
2023/04/03 01:44:04;;;;;;;5.75;5.25;;;;;;;;;;5072241;28;20589;-65
2023/04/03 01:46:30;;;;;;;6.75;5.10;;;;;;;;;;5072301;28;20045;-65
2023/04/03 01:48:56;;;;;;;7.28;4.70;;;;;;;;;;5072420;28;20300;-66
2023/04/03 01:51:23;;;;;;;9.13;5.53;;;;;;;;;;5072041;28;20055;-66
2023/04/03 01:53:49;;;;;;;6.50;4.78;;;;;;;;;;5072136;28;20048;-66
2023/04/03 01:56:15;;;;;;;7.35;5.18;;;;;;;;;;5065142;28;20063;-66
2023/04/03 01:58:42;;;;;;;6.63;5.30;;;;;;;;;;5071732;28;20074;-66
2023/04/03 02:01:08;;;;;;;6.07;4.90;;;;;;;;;;5072215;28;20048;-66
2023/04/03 02:03:35;;;;;;;7.03;4.85;;;;;;;;;;5071926;28;20049;-65
2023/04/03 02:06:02;;;;;;;7.85;4.50;;;;;;;;;;5072062;28;20051;-66
2023/04/03 02:08:28;;;;;;;9.63;5.07;;;;;;;;;;5071931;28;20185;-66
2023/04/03 02:10:54;;;;;;;6.70;4.53;;;;;;;;;;5071743;28;20059;-66
2023/04/03 02:13:21;;;;;;;10.65;5.32;;;;;;;;;;5071913;28;20048;-65
2023/04/03 02:15:47;;;;;;;7.35;4.93;;;;;;;;;;5072009;28;20399;-65
2023/04/03 02:18:14;;;;;;;7.57;4.47;;;;;;;;;;5071546;28;20488;-65
2023/04/03 02:20:40;;;;;;;7.68;5.18;;;;;;;;;;5071717;28;20481;-66
2023/04/03 02:23:07;;;;;;;9.13;5.88;;;;;;;;;;5071579;28;20049;-66
2023/04/03 02:25:33;;;;;;;8.07;5.22;;;;;;;;;;5071969;28;20127;-66
2023/04/03 02:28:03;;;;;;;9.18;5.45;;;;;;;;;;5071537;28;20057;-66
2023/04/03 02:30:29;;;;;;;7.90;5.30;;;;;;;;;;5071768;28;20059;-66
2023/04/03 02:32:56;;;;;;;7.70;4.82;;;;;;;;;;5071730;28;20075;-66
2023/04/03 02:35:22;;;;;;;7.15;5.28;;;;;;;;;;5071412;28;20044;-66
2023/04/03 02:37:49;;;;;;;7.90;5.20;;;;;;;;;;5071599;28;20515;-66
2023/04/03 02:40:15;;;;;;;7.00;4.47;;;;;;;;;;5071730;28;20127;-66
2023/04/03 02:42:42;;;;;;;7.53;4.60;;;;;;;;;;5071741;28;20036;-66
2023/04/03 02:45:08;;;;;;;6.25;4.65;;;;;;;;;;5071712;28;20041;-66
2023/04/03 02:47:35;;;;;;;5.93;4.47;;;;;;;;;;5071544;28;20045;-66
2023/04/03 02:50:01;;;;;;;6.03;4.68;;;;;;;;;;5071504;28;20052;-66
2023/04/03 02:52:27;;;;;;;5.72;3.92;;;;;;;;;;5071306;28;20098;-66
2023/04/03 02:54:54;;;;;;;4.53;4.10;;;;;;;;;;5071346;28;20055;-66
2023/04/03 02:57:20;;;;;;;6.63;4.30;;;;;;;;;;5071570;28;20048;-66
2023/04/03 02:59:47;;;;;;;7.60;4.22;;;;;;;;;;5071189;28;20533;-65
2023/04/03 03:02:13;;;;;;;5.88;4.38;;;;;;;;;;5071257;28;20055;-65
2023/04/03 03:04:40;;;;;;;6.97;4.50;;;;;;;;;;5071149;28;20052;-65
2023/04/03 03:07:06;;;;;;;5.88;4.43;;;;;;;;;;5071203;28;20049;-65
2023/04/03 03:09:32;;;;;;;5.75;4.45;;;;;;;;;;5071487;28;20079;-65
2023/04/03 03:11:59;;;;;;;7.43;5.15;;;;;;;;;;5071527;28;20044;-65
2023/04/03 03:14:25;;;;;;;7.28;4.93;;;;;;;;;;5071256;28;20419;-65
2023/04/03 03:16:52;;;;;;;9.10;4.90;;;;;;;;;;5071236;28;20050;-65
2023/04/03 03:19:18;;;;;;;5.72;5.20;;;;;;;;;;5071090;28;20132;-65
2023/04/03 03:21:44;;;;;;;6.70;5.03;;;;;;;;;;5070967;28;20041;-65
2023/04/03 03:24:11;;;;;;;5.68;5.03;;;;;;;;;;5071088;28;20051;-66
2023/04/03 03:26:38;;;;;;;6.88;4.78;;;;;;;;;;5071054;28;20504;-65
2023/04/03 03:29:04;;;;;;;7.50;4.85;;;;;;;;;;5071051;28;20061;-65
2023/04/03 03:31:31;;;;;;;6.97;4.50;;;;;;;;;;5071075;28;20127;-65
2023/04/03 03:33:57;;;;;;;8.95;4.75;;;;;;;;;;5070977;28;20119;-66
2023/04/03 03:36:24;;;;;;;7.85;4.70;;;;;;;;;;5071170;28;20060;-65
2023/04/03 03:38:50;;;;;;;7.50;4.95;;;;;;;;;;5071082;28;20048;-66
2023/04/03 03:41:17;;;;;;;4.80;4.30;;;;;;;;;;5070946;28;20492;-65
2023/04/03 03:43:43;;;;;;;7.90;5.10;;;;;;;;;;5070844;28;20494;-66
2023/04/03 03:46:09;;;;;;;6.60;4.75;;;;;;;;;;5071013;28;20040;-66
2023/04/03 03:48:36;;;;;;;6.15;4.57;;;;;;;;;;5073837;28;20070;-66
2023/04/03 03:51:02;;;;;;;7.28;4.82;;;;;;;;;;5074385;28;20052;-66
2023/04/03 03:53:29;;;;;;;5.88;4.70;;;;;;;;;;5074359;28;20055;-66
2023/04/03 03:55:55;;;;;;;9.77;5.35;;;;;;;;;;5074670;28;20044;-66
2023/04/03 03:58:22;;;;;;;6.88;4.75;;;;;;;;;;5074264;28;20059;-65
2023/04/03 04:00:48;;;;;;;9.68;4.93;;;;;;;;;;5074286;28;20059;-66
2023/04/03 04:03:14;;;;;;;8.52;4.40;;;;;;;;;;5074145;28;20055;-65
2023/04/03 04:05:41;;;;;;;8.35;4.95;;;;;;;;;;5074429;28;20098;-65
2023/04/03 04:08:07;;;;;;;9.02;4.97;;;;;;;;;;5074373;28;20120;-65
2023/04/03 04:10:34;;;;;;;7.95;4.50;;;;;;;;;;5074283;28;20067;-65
2023/04/03 04:13:00;;;;;;;8.52;5.40;;;;;;;;;;5074268;28;20084;-65
2023/04/03 04:15:27;;;;;;;6.10;4.63;;;;;;;;;;5074005;28;20078;-65
2023/04/03 04:17:53;;;;;;;10.18;5.07;;;;;;;;;;5074109;28;20129;-66
2023/04/03 04:20:20;;;;;;;7.25;4.50;;;;;;;;;;5073832;28;20053;-65
2023/04/03 04:22:46;;;;;;;6.55;4.60;;;;;;;;;;5074117;28;20045;-65
2023/04/03 04:25:13;;;;;;;9.63;5.18;;;;;;;;;;5074155;28;20045;-66
2023/04/03 04:27:39;;;;;;;5.45;4.60;;;;;;;;;;5055593;28;20488;-66
2023/04/03 04:30:06;;;;;;;7.13;5.28;;;;;;;;;;5074255;28;20079;-66
2023/04/03 04:32:32;;;;;;;7.25;5.28;;;;;;;;;;5073742;28;20127;-65
2023/04/03 04:34:59;;;;;;;8.60;5.40;;;;;;;;;;5073789;28;20053;-66
2023/04/03 04:37:25;;;;;;;7.75;4.18;;;;;;;;;;5073888;28;20056;-66
2023/04/03 04:39:52;;;;;;;9.70;5.70;;;;;;;;;;5073573;28;20048;-66
2023/04/03 04:42:18;;;;;;;6.72;4.65;;;;;;;;;;5073549;28;20484;-66
2023/04/03 04:44:45;;;;;;;8.07;5.57;;;;;;;;;;5073444;28;20049;-66
2023/04/03 04:47:11;;;;;;;6.85;4.95;;;;;;;;;;5073295;28;20059;-66
2023/04/03 04:49:37;;;;;;;9.18;4.85;;;;;;;;;;5073302;28;20053;-66
2023/04/03 04:52:04;;;;;;;8.57;4.90;;;;;;;;;;5073624;28;20064;-65
2023/04/03 04:54:30;;;;;;;7.95;4.85;;;;;;;;;;5073559;28;20088;-65
2023/04/03 04:56:57;;;;;;;8.13;4.97;;;;;;;;;;5073430;28;20048;-65
2023/04/03 04:59:23;;;;;;;10.07;5.45;;;;;;;;;;5071840;28;20113;-66
2023/04/03 05:01:50;;;;;;;6.60;4.45;;;;;;;;;;5073622;28;20071;-66
2023/04/03 05:04:17;;;;;;;7.95;4.47;;;;;;;;;;5073117;28;20051;-65
2023/04/03 05:06:43;;;;;;;7.32;4.57;;;;;;;;;;5072970;28;20094;-65
2023/04/03 05:09:10;;;;;;;8.05;4.97;;;;;;;;;;5073179;28;20084;-66
2023/04/03 05:11:36;;;;;;;11.15;4.88;;;;;;;;;;5073018;28;20404;-65
2023/04/03 05:14:05;;;;;;;7.70;4.70;;;;;;;;;;5073141;28;20136;-66
2023/04/03 05:16:32;;;;;;;9.93;4.97;;;;;;;;;;5072744;28;20653;-65
2023/04/03 05:18:58;;;;;;;7.50;4.68;;;;;;;;;;5072935;28;20054;-65
2023/04/03 05:21:25;;;;;;;11.02;4.65;;;;;;;;;;5072818;28;20040;-65
2023/04/03 05:23:52;;;;;;;8.40;5.80;;;;;;;;;;5072647;28;20048;-65
2023/04/03 05:26:18;;;;;;;7.55;5.30;;;;;;;;;;5072463;28;20063;-65
2023/04/03 05:28:45;;;;;;;7.97;5.00;;;;;;;;;;5072488;28;20048;-65
2023/04/03 05:31:12;;;;;;;11.65;5.70;;;;;;;;;;5072814;28;20127;-65
2023/04/03 05:33:39;;;;;;;9.65;5.03;;;;;;;;;;5072605;28;20131;-65
2023/04/03 05:36:06;;;;;;;9.70;5.00;;;;;;;;;;5072608;28;20502;-66
2023/04/03 05:38:33;;;;;;;8.25;5.10;;;;;;;;;;5072597;28;20040;-66
2023/04/03 05:40:59;;;;;;;9.50;5.32;;;;;;;;;;5072308;28;20572;-66
2023/04/03 05:43:25;;;;;;;7.68;4.70;;;;;;;;;;5072477;28;20044;-66
2023/04/03 05:45:52;;;;;;;10.02;5.32;;;;;;;;;;5072370;28;20040;-66
2023/04/03 05:48:18;;;;;;;10.75;5.43;;;;;;;;;;5072443;28;20059;-66
2023/04/03 05:50:45;;;;;;;9.18;5.05;;;;;;;;;;5072362;28;20045;-66
2023/04/03 05:53:20;;;;;;;8.10;4.50;;;;;;;;;;5072415;28;20045;-66
2023/04/03 05:55:47;;;;;;;7.18;4.47;;;;;;;;;;5072024;28;20049;-66
2023/04/03 05:58:13;;;;;;;5.95;4.05;;;;;;;;;;5072130;28;20474;-66
2023/04/03 06:00:40;;;;;;;8.00;4.18;;;;;;;;;;5072024;28;20045;-66
2023/04/03 06:03:06;;;;;;;8.63;4.22;;;;;;;;;;5072222;28;20106;-66
2023/04/03 06:05:33;;;;;;;8.17;3.90;;;;;;;;;;5071865;28;20492;-65
2023/04/03 06:08:00;;;;;;;7.50;4.38;;;;;;;;;;5071780;28;20043;-65
2023/04/03 06:10:26;;;;;;;10.40;4.93;;;;;;;;;;5071764;28;20110;-65
2023/04/03 06:12:53;;;;;;;9.25;4.05;;;;;;;;;;5071749;28;20508;-65
2023/04/03 06:15:20;;;;;;;6.40;3.92;;;;;;;;;;5072337;28;20090;-65
2023/04/03 06:17:46;;;;;;;10.17;4.63;;;;;;;;;;5072062;28;20064;-65
2023/04/03 06:20:13;;;;;;;9.93;4.40;;;;;;;;;;5071777;28;20044;-66
2023/04/03 06:22:40;;;;;;;9.27;4.07;;;;;;;;;;5071771;28;20438;-66
2023/04/03 06:25:06;;;;;;;10.60;4.20;;;;;;;;;;5072026;28;20044;-65
2023/04/03 06:27:33;;;;;;;8.02;3.58;;;;;;;;;;5071786;28;20051;-65
2023/04/03 06:29:59;;;;;;;6.80;3.70;;;;;;;;;;5071560;28;20044;-65
2023/04/03 06:32:26;;;;;;;12.90;4.13;;;;;;;;;;5071880;28;20055;-66
2023/04/03 06:34:53;;;;;;;11.07;4.07;;;;;;;;;;5071819;28;20059;-66
2023/04/03 06:37:21;;;;;;;7.88;3.67;;;;;;;;;;5071823;28;20055;-66
2023/04/03 06:39:47;;;;;;;;;;;;;;;;;;5072073;28;20052;-66
2023/04/03 06:42:14;;;;;;;6.85;3.85;;;;;;;;;;5071532;28;19924;-66
2023/04/03 06:44:40;;;;;;;5.00;3.25;;;;;;;;;;5071730;28;20079;-66
2023/04/03 06:47:08;;;;;;;5.90;3.33;;;;;;;;;;5071740;28;20051;-66
2023/04/03 06:49:36;;;;;;;;;;;;;;;;;;5072169;28;20080;-66
2023/04/03 06:52:03;;;;;;;10.40;3.35;;;;;;;;;;5071336;28;20390;-66
2023/04/03 06:54:29;;;;;;;6.43;3.47;;;;;;;;;;5071458;28;20482;-66
2023/04/03 06:56:56;;;;;;;8.88;3.58;;;;;;;;;;5071586;28;20049;-66
2023/04/03 06:59:22;;;;;;;8.13;4.05;;;;;;;;;;5071184;28;20049;-66
2023/04/03 07:01:48;;;;;;;9.10;3.35;;;;;;;;;;5071615;28;20067;-66
2023/04/03 07:04:15;;;;;;;10.20;3.63;;;;;;;;;;5071450;28;20423;-66
2023/04/03 07:06:42;;;;;;;8.98;3.30;;;;;;;;;;5071206;28;20105;-66
2023/04/03 07:09:09;;;;;;;8.73;2.80;;;;;;;;;;5071465;28;20049;-66
2023/04/03 07:11:36;;;;;;;7.25;3.00;;;;;;;;;;5071242;28;20048;-66
2023/04/03 07:14:02;;;;;;;5.07;3.17;;;;;;;;;;5071164;28;20062;-66
2023/04/03 07:16:31;;;;;;;6.97;2.97;;;;;;;;;;5071197;28;20052;-66
2023/04/03 07:18:58;;;;;;;7.15;2.92;;;;;;;;;;5071066;28;20056;-66
2023/04/03 07:21:25;;;;;;;8.52;3.28;;;;;;;;;;5071367;28;20439;-66
2023/04/03 07:23:51;;;;;;;7.00;3.08;;;;;;;;;;5074550;28;20571;-66
2023/04/03 07:26:18;;;;;;;7.95;3.40;;;;;;;;;;5075136;28;20053;-65
2023/04/03 07:28:47;;;;;;;6.28;3.10;;;;;;;;;;5075287;28;20044;-66
2023/04/03 07:31:14;;;;;;;8.85;2.80;;;;;;;;;;5074904;28;20052;-66
2023/04/03 07:33:41;;;;;;;7.15;2.53;;;;;;;;;;5074764;28;20662;-66
2023/04/03 07:36:09;;;;;;;9.00;3.03;;;;;;;;;;5074734;28;20052;-66
2023/04/03 07:38:36;;;;;;;7.72;2.58;;;;;;;;;;5074790;28;20048;-66
2023/04/03 07:41:03;;;;;;;7.03;2.87;;;;;;;;;;5074857;28;20053;-66
2023/04/03 07:43:29;;;;;;;8.23;2.93;;;;;;;;;;5074893;28;20083;-66
2023/04/03 07:45:56;;;;;;;7.38;2.60;;;;;;;;;;5074592;28;20512;-66
2023/04/03 07:48:26;;;;;;;8.70;2.55;;;;;;;;;;5074674;28;20052;-66
2023/04/03 07:50:52;;;;;;;8.05;2.95;;;;;;;;;;5074406;28;20504;-66
2023/04/03 07:53:19;;;;;;;8.32;2.75;;;;;;;;;;5074442;28;20070;-66
2023/04/03 07:55:46;;;;;;;6.68;2.45;;;;;;;;;;5074406;28;20054;-66
2023/04/03 07:58:14;;;;;;;8.90;3.13;;;;;;;;;;5074253;28;20053;-65
2023/04/03 08:00:41;;;;;;;6.93;2.33;;;;;;;;;;5056420;28;20367;-66
2023/04/03 08:03:09;;;;;;;8.10;2.22;;;;;;;;;;5074548;28;20044;-65
2023/04/03 08:05:39;;;;;;;7.38;2.28;;;;;;;;;;5074150;28;20045;-66
2023/04/03 08:08:06;;;;;;;;;;;;;;;;;;5074614;28;20083;-66
2023/04/03 08:10:32;;;;;;;6.20;2.33;;;;;;;;;;5074129;28;20371;-66
2023/04/03 08:12:59;;;;;;;4.45;2.28;;;;;;;;;;5074334;28;20045;-66
2023/04/03 08:15:26;;;;;;;5.10;2.42;;;;;;;;;;5074281;28;20076;-66
2023/04/03 08:17:53;;;;;;;9.00;2.90;;;;;;;;;;5073959;28;20143;-65
2023/04/03 08:20:20;;;;;;;9.77;3.10;;;;;;;;;;5074274;28;20347;-66
2023/04/03 08:22:46;;;;;;;7.47;2.35;;;;;;;;;;5073994;28;20050;-65
2023/04/03 08:25:13;;;;;;;6.20;2.38;;;;;;;;;;5074020;28;20055;-65
2023/04/03 08:27:39;;;;;;;8.13;2.35;;;;;;;;;;5073753;28;20539;-65
2023/04/03 08:30:06;;;;;;;8.68;2.63;;;;;;;;;;5073602;28;20052;-65
2023/04/03 08:32:35;;;;;;;6.20;2.30;;;;;;;;;;5074074;28;20048;-65
2023/04/03 08:35:03;;;;;;;7.35;2.45;;;;;;;;;;5073801;28;20129;-65
2023/04/03 08:37:29;;;;;;;8.02;2.55;;;;;;;;;;5073809;28;20135;-66
2023/04/03 08:39:56;;;;;;;9.18;2.33;;;;;;;;;;5073452;28;20044;-65
2023/04/03 08:42:22;;;;;;;6.50;1.90;;;;;;;;;;5073505;28;20488;-65
2023/04/03 08:45:15;;;;;;;3.83;1.98;;;;;;;;;;5073614;28;20056;-65
2023/04/03 08:47:56;;;;;;;5.50;2.35;;;;;;;;;;5069721;28;20140;-65
2023/04/03 08:50:29;;;;;;;5.43;1.85;;;;;;;;;;5073346;28;20498;-65
2023/04/03 08:52:57;;;;;;;6.57;2.28;;;;;;;;;;5073315;28;20072;-65
2023/04/03 08:55:23;;;;;;;;;;;;;;;;;;5073861;28;20086;-65
2023/04/03 08:57:54;;;;;;;6.68;2.00;;;;;;;;;;5073266;28;19925;-65
2023/04/03 09:00:23;;;;;;;7.85;1.90;;;;;;;;;;5073278;28;20078;-65
2023/04/03 09:02:54;;;;;;;6.95;1.63;;;;;;;;;;5073117;28;20131;-65
2023/04/03 09:05:27;;;;;;;4.95;1.98;;;;;;;;;;5073285;28;20125;-65
2023/04/03 09:08:00;;;;;;;4.78;1.70;;;;;;;;;;5073114;28;20048;-65
2023/04/03 09:10:31;;;;;;;4.13;1.95;;;;;;;;;;5073477;28;20071;-65
2023/04/03 09:13:07;;;;;;;5.20;1.95;;;;;;;;;;5072845;28;20044;-66
2023/04/03 09:15:34;;;;;;;4.63;1.60;;;;;;;;;;5072888;28;20080;-65
2023/04/03 09:18:20;;;;;;;7.07;2.00;;;;;;;;;;5072813;28;20415;-65
2023/04/03 09:20:53;;;;;;;7.32;2.10;;;;;;;;;;5072985;28;20048;-65
2023/04/03 09:23:22;;;;;;;5.30;2.30;;;;;;;;;;5072652;28;20036;-66
2023/04/03 09:25:50;;;;;;;8.05;2.15;;;;;;;;;;5072925;28;20056;-65
2023/04/03 09:28:17;;;;;;;6.93;1.92;;;;;;;;;;5072726;28;20041;-66
2023/04/03 09:30:43;;;;;;;4.88;2.08;;;;;;;;;;5072841;28;20132;-65
2023/04/03 09:33:10;;;;;;;6.15;2.08;;;;;;;;;;5072496;28;20059;-65
2023/04/03 09:35:40;;;;;;;5.20;1.83;;;;;;;;;;5072765;28;20058;-65
2023/04/03 09:38:21;;;;;;;5.25;2.03;;;;;;;;;;5072463;28;20056;-65
2023/04/03 09:41:03;;;;;;;3.75;1.75;;;;;;;;;;5072300;28;20044;-65
2023/04/03 09:43:31;;;;;;;4.88;1.92;;;;;;;;;;5072458;28;20090;-65
2023/04/03 09:46:16;;;;;;;6.97;2.20;;;;;;;;;;5071902;28;20044;-65
2023/04/03 09:48:59;;;;;;;5.65;1.80;;;;;;;;;;5072192;28;20122;-65
2023/04/03 09:51:34;;;;;;;5.10;1.70;;;;;;;;;;5072437;28;20056;-65
2023/04/03 09:54:15;;;;;;;4.23;2.00;;;;;;;;;;5072042;28;20496;-65
2023/04/03 09:56:49;;;;;;;5.47;2.15;;;;;;;;;;5072266;28;20075;-65
2023/04/03 09:59:16;;;;;;;4.78;2.30;;;;;;;;;;5071993;28;20052;-65
2023/04/03 10:01:56;;;;;;;5.70;2.22;;;;;;;;;;5071905;28;20407;-66
2023/04/03 10:04:22;;;;;;;4.18;2.28;;;;;;;;;;5072140;28;20053;-66
2023/04/03 10:06:53;;;;;;;5.93;2.20;;;;;;;;;;5071909;28;20519;-66
2023/04/03 10:09:22;;;;;;;5.43;2.30;;;;;;;;;;5072156;28;20055;-66
2023/04/03 10:12:05;;;;;;;3.97;2.10;;;;;;;;;;5071922;28;20083;-66
2023/04/03 10:14:51;;;;;;;6.80;4.22;;;;;;;;;;5072123;28;20131;-66
2023/04/03 10:17:18;;;;;;;6.55;2.58;;;;;;;;;;5071895;28;20052;-66
2023/04/03 10:19:45;;;;;;;;;;;;;;;;;;5072338;28;20048;-66
2023/04/03 10:22:21;;;;;;;6.80;2.83;;;;;;;;;;5071460;28;19924;-66
2023/04/03 10:24:58;;;;;;;5.35;3.20;;;;;;;;;;5071664;28;20055;-65
2023/04/03 10:27:24;;;;;;;5.50;2.30;;;;;;;;;;5071546;28;20072;-66
2023/04/03 10:30:10;;;;;;;4.93;2.73;;;;;;;;;;5071544;28;20526;-66
2023/04/03 10:33:13;;;;;;;5.38;2.70;;;;;;;;;;5071677;28;20068;-65
2023/04/03 10:35:45;;;;;;;5.43;2.38;;;;;;;;;;4986873;28;20057;-62
2023/04/03 10:38:12;;;;;;;5.63;2.60;;;;;;;;;;5058325;28;20084;-61
2023/04/03 10:40:52;;;;;;;4.97;2.47;;;;;;;;;;5070276;28;20040;-62
2023/04/03 10:43:21;;;;;;;5.72;2.40;;;;;;;;;;5070866;28;20480;-60
2023/04/03 10:46:00;;;;;;;4.80;2.50;;;;;;;;;;5071258;28;20519;-60
2023/04/03 10:48:29;;;;;;;5.72;2.80;;;;;;;;;;5071564;28;20488;-60
2023/04/03 10:51:06;;;;;;;7.63;3.00;;;;;;;;;;5071124;28;20054;-60
2023/04/03 10:53:56;;;;;;;6.70;2.80;;;;;;;;;;5043034;28;20131;-61
2023/04/03 10:56:28;;;;;;;6.13;2.90;;;;;;;;;;5033951;28;20135;-61
2023/04/03 10:58:58;;;;;;;7.43;3.28;;;;;;;;;;5075134;28;20048;-60
2023/04/03 11:01:29;;;;;;;5.65;3.08;;;;;;;;;;5074778;28;20041;-61
2023/04/03 11:03:57;;;;;;;6.07;2.97;;;;;;;;;;5074014;28;20052;-61
2023/04/03 11:06:25;;;;;;;5.85;2.80;;;;;;;;;;5073354;28;20048;-61
2023/04/03 11:09:03;;;;;;;5.88;3.10;;;;;;;;;;5075176;28;20054;-61
2023/04/03 11:11:35;;;;;;;4.68;2.78;;;;;;;;;;5075119;28;20051;-61
2023/04/03 11:14:16;;;;;;;6.15;3.03;;;;;;;;;;5075332;28;20052;-61
2023/04/03 11:16:47;;;;;;;5.20;3.30;;;;;;;;;;5075024;28;20062;-61
2023/04/03 11:19:23;;;;;;;5.22;3.20;;;;;;;;;;5075466;28;20056;-61
2023/04/03 11:22:09;;;;;;;6.05;3.50;;;;;;;;;;5074976;28;20075;-61
2023/04/03 11:24:38;;;;;;;4.20;3.03;;;;;;;;;;5074940;28;20472;-61
2023/04/03 11:27:05;;;;;;;4.68;2.95;;;;;;;;;;5075026;28;20048;-61
2023/04/03 11:29:31;;;;;;;;;;;;;;;;;;5075626;28;20083;-61
2023/04/03 11:32:19;;;;;;;5.28;3.10;;;;;;;;;;5074848;28;20441;-61
2023/04/03 11:34:47;;;;;;;5.97;3.35;;;;;;;;;;5074819;28;20058;-60
2023/04/03 11:37:14;;;;;;;4.78;3.55;;;;;;;;;;5075046;28;20049;-61
2023/04/03 11:39:46;;;;;;;5.70;3.60;;;;;;;;;;5074906;28;20048;-60
2023/04/03 11:42:30;;;;;;;7.15;3.38;;;;;;;;;;5074786;28;20324;-61
2023/04/03 11:45:16;;;;;;;4.78;3.35;;;;;;;;;;5067266;28;20037;-61
2023/04/03 11:47:55;;;;;;;7.20;3.80;;;;;;;;;;5073978;28;20048;-61
2023/04/03 11:50:31;;;;;;;8.05;4.05;;;;;;;;;;5074257;28;20059;-61
2023/04/03 11:52:59;;;;;;;4.28;3.40;;;;;;;;;;5074202;28;20055;-61
2023/04/03 11:55:31;;;;;;;4.43;3.50;;;;;;;;;;5073905;28;20411;-61
2023/04/03 11:57:57;;;;;;;3.78;3.30;;;;;;;;;;5073648;28;20492;-61
2023/04/03 12:00:42;;;;;;;4.82;3.40;;;;;;;;;;5073228;28;20420;-61
2023/04/03 12:03:28;;;;;;;3.97;3.58;;;;;;;;;;5074011;28;20048;-62
2023/04/03 12:05:59;;;;;;;5.53;3.53;;;;;;;;;;5073790;28;20045;-61
2023/04/03 12:08:30;;;;;;;5.25;3.95;;;;;;;;;;5072835;28;20403;-61
2023/04/03 12:11:08;;;;;;;5.60;3.75;;;;;;;;;;5072857;28;20053;-61
2023/04/03 12:13:53;;;;;;;5.28;3.80;;;;;;;;;;5073763;28;20132;-62
2023/04/03 12:16:26;;;;;;;5.18;3.45;;;;;;;;;;5071661;28;20048;-61
2023/04/03 12:18:53;;;;;;;3.85;3.38;;;;;;;;;;5072777;28;20136;-61
2023/04/03 12:21:21;;;;;;;4.22;3.45;;;;;;;;;;5073255;28;20048;-62
2023/04/03 12:24:01;;;;;;;5.57;3.67;;;;;;;;;;5073224;28;20496;-61
2023/04/03 12:26:30;;;;;;;4.68;2.90;;;;;;;;;;5072837;28;20099;-61
2023/04/03 12:29:12;;;;;;;4.75;2.78;;;;;;;;;;5070128;28;20057;-61
2023/04/03 12:32:02;;;;;;;3.28;2.55;;;;;;;;;;5073138;28;20056;-61
2023/04/03 12:34:47;;;;;;;3.92;2.55;;;;;;;;;;5035532;28;20059;-61
2023/04/03 12:37:14;;;;;;;3.97;3.17;;;;;;;;;;5073149;28;20492;-61
2023/04/03 12:39:43;;;;;;;4.03;2.55;;;;;;;;;;5073051;28;20064;-61
2023/04/03 12:42:30;;;;;;;4.88;2.50;;;;;;;;;;5072808;28;20055;-61
2023/04/03 12:44:56;;;;;;;5.75;2.67;;;;;;;;;;5073275;28;20047;-61
2023/04/03 12:47:35;;;;;;;3.88;2.85;;;;;;;;;;5072965;28;20132;-61
2023/04/03 12:50:03;;;;;;;3.60;2.55;;;;;;;;;;5072859;28;20106;-61
2023/04/03 12:52:45;;;;;;;2.67;2.42;;;;;;;;;;5072799;28;20088;-61
2023/04/03 12:55:16;;;;;;;4.28;2.72;;;;;;;;;;5072978;28;20049;-62
2023/04/03 12:57:42;;;;;;;4.05;3.00;;;;;;;;;;5072816;28;20048;-61
2023/04/03 13:00:18;;;;;;;5.93;3.15;;;;;;;;;;5072870;28;20053;-61
2023/04/03 13:02:46;;;;;;;4.20;2.85;;;;;;;;;;5072748;28;20137;-61
2023/04/03 13:05:17;;;;;;;4.82;2.70;;;;;;;;;;5072524;28;20117;-61
2023/04/03 13:07:44;;;;;;;4.28;2.83;;;;;;;;;;5072844;28;20123;-61
2023/04/03 13:10:15;;;;;;;4.60;2.72;;;;;;;;;;5071952;28;20048;-61
2023/04/03 13:12:55;;;;;;;3.83;2.83;;;;;;;;;;5072444;28;20079;-61
2023/04/03 13:15:27;;;;;;;4.28;2.80;;;;;;;;;;5070177;28;20504;-61
2023/04/03 13:17:54;;;;;;;5.30;3.05;;;;;;;;;;5072573;28;20135;-61
2023/04/03 13:20:25;;;;;;;4.78;2.83;;;;;;;;;;5071620;28;20117;-61
2023/04/03 13:22:57;;;;;;;3.53;2.88;;;;;;;;;;5072434;28;20449;-61
2023/04/03 13:25:25;;;;;;;5.28;3.30;;;;;;;;;;5072210;28;20044;-61
2023/04/03 13:27:52;;;;;;;4.22;2.97;;;;;;;;;;5071482;28;20488;-61
2023/04/03 13:30:36;;;;;;;5.35;3.20;;;;;;;;;;5071849;28;20488;-61
2023/04/03 13:33:05;;;;;;;4.45;3.17;;;;;;;;;;5071570;28;20097;-61
2023/04/03 13:35:34;;;;;;;4.55;3.60;;;;;;;;;;5065136;28;20553;-61
2023/04/03 13:38:02;;;;;;;3.88;3.30;;;;;;;;;;5070922;28;20045;-61
2023/04/03 13:40:29;;;;;;;5.00;3.00;;;;;;;;;;5069023;28;20154;-61
2023/04/03 13:43:17;;;;;;;4.60;3.30;;;;;;;;;;5069482;28;20392;-61
2023/04/03 13:45:57;;;;;;;5.47;3.60;;;;;;;;;;5070474;28;20040;-61
2023/04/03 13:48:24;;;;;;;4.00;3.60;;;;;;;;;;5070404;28;20098;-61
2023/04/03 13:50:56;;;;;;;4.63;3.72;;;;;;;;;;5070170;28;20052;-61
2023/04/03 13:53:22;;;;;;;7.13;3.65;;;;;;;;;;5070904;28;20559;-61
2023/04/03 13:55:58;;;;;;;4.63;3.97;;;;;;;;;;5071883;28;20045;-61
2023/04/03 13:58:25;;;;;;;5.43;4.53;;;;;;;;;;5072183;28;20078;-61
2023/04/03 14:00:59;;;;;;;5.68;4.30;;;;;;;;;;5071906;28;20569;-62
2023/04/03 14:03:52;;;;;;;4.97;4.57;;;;;;;;;;5071932;28;20070;-61
2023/04/03 14:06:18;;;;;;;4.80;4.38;;;;;;;;;;5068282;28;20044;-61
2023/04/03 14:08:45;;;;;;;5.10;4.60;;;;;;;;;;5072256;28;20048;-61
2023/04/03 14:11:20;;;;;;;5.22;4.72;;;;;;;;;;5072160;28;20052;-61
2023/04/03 14:13:47;;;;;;;5.95;5.25;;;;;;;;;;5072166;28;20060;-61
2023/04/03 14:16:16;;;;;;;5.38;4.88;;;;;;;;;;5053869;28;20131;-61
2023/04/03 14:18:43;;;;;;;5.85;5.35;;;;;;;;;;5071798;28;20441;-61
2023/04/03 14:21:14;;;;;;;6.63;5.00;;;;;;;;;;5071620;28;20419;-61
2023/04/03 14:23:41;;;;;;;5.72;5.25;;;;;;;;;;5071789;28;20042;-61
2023/04/03 14:26:16;;;;;;;5.57;5.07;;;;;;;;;;5071594;28;20048;-61
2023/04/03 14:28:42;;;;;;;5.53;5.00;;;;;;;;;;5072041;28;20051;-61
2023/04/03 14:31:11;;;;;;;5.95;5.35;;;;;;;;;;5071462;28;20049;-61
2023/04/03 14:33:38;;;;;;;5.82;5.32;;;;;;;;;;5071689;28;20121;-61
2023/04/03 14:36:11;;;;;;;5.40;5.00;;;;;;;;;;5071502;28;20063;-61
2023/04/03 14:38:37;;;;;;;6.13;5.55;;;;;;;;;;5071527;28;20076;-61
2023/04/03 14:41:04;;;;;;;6.00;5.40;;;;;;;;;;5071429;28;20063;-61
2023/04/03 14:43:42;;;;;;;6.03;4.85;;;;;;;;;;5071699;28;20466;-61
2023/04/03 14:46:15;;;;;;;5.97;5.32;;;;;;;;;;5071635;28;20049;-61
2023/04/03 14:48:42;;;;;;;5.75;5.32;;;;;;;;;;5071703;28;20094;-61
2023/04/03 14:51:12;;;;;;;5.20;4.70;;;;;;;;;;5071429;28;20052;-62
2023/04/03 14:53:40;;;;;;;5.38;4.20;;;;;;;;;;5071663;28;20059;-61
2023/04/03 14:56:11;;;;;;;5.22;4.68;;;;;;;;;;5071745;28;20407;-61